Time;durP1;ratioP1;P1;durP2;ratioP2;P2;SDS_P1;SDS_P2;PMS_P1;PMS_P2;Temp;Humidity;BMP_temperature;BMP_pressure;BME280_temperature;BME280_humidity;BME280_pressure;Samples;Min_cycle;Max_cycle;Signal;HPM_P1;HPM_P2
2024/02/14 00:00:30;;;;;;;2.13;1.85;;;12.50;68.60;14.10;101075.00;;;;5029652;28;20196;-71
2024/02/14 00:02:57;;;;;;;3.05;2.47;;;12.50;68.70;14.10;101066.00;;;;5033860;28;20720;-71
2024/02/14 00:05:26;;;;;;;3.03;2.20;;;12.50;68.70;14.10;101070.00;;;;5033051;28;20230;-70
2024/02/14 00:07:53;;;;;;;2.40;2.20;;;12.50;68.80;14.20;101074.00;;;;5031236;28;20679;-71
2024/02/14 00:10:20;;;;;;;2.22;2.03;;;12.50;68.90;14.10;101068.00;;;;5034126;28;20277;-70
2024/02/14 00:12:48;;;;;;;2.40;2.03;;;12.50;68.80;14.10;101060.00;;;;5033610;28;20612;-71
2024/02/14 00:15:15;;;;;;;2.50;2.00;;;12.60;68.90;14.20;101061.00;;;;5033370;28;20192;-71
2024/02/14 00:17:43;;;;;;;2.38;2.17;;;12.60;68.90;14.20;101062.00;;;;5032024;28;20295;-71
2024/02/14 00:20:12;;;;;;;2.67;2.42;;;12.60;68.90;14.20;101055.00;;;;5035332;28;20228;-71
2024/02/14 00:22:40;;;;;;;2.63;2.40;;;12.60;69.00;14.20;101062.00;;;;5033650;28;20200;-71
2024/02/14 00:25:09;;;;;;;3.00;2.47;;;12.60;69.80;14.20;101052.00;;;;5035104;28;20287;-72
2024/02/14 00:27:36;;;;;;;2.67;2.10;;;12.60;69.20;14.20;101056.00;;;;5034732;28;20242;-72
2024/02/14 00:30:03;;;;;;;2.53;2.33;;;12.60;69.10;14.20;101049.00;;;;5028423;28;20307;-71
2024/02/14 00:32:31;;;;;;;2.60;2.35;;;12.60;69.20;14.30;101050.00;;;;5028832;28;20192;-71
2024/02/14 00:34:58;;;;;;;2.78;2.45;;;12.60;69.30;14.30;101051.00;;;;5010852;28;20196;-72
2024/02/14 00:37:25;;;;;;;2.97;2.67;;;12.70;69.40;14.30;101053.00;;;;5022798;28;20565;-72
2024/02/14 00:39:55;;;;;;;2.45;2.25;;;12.70;69.40;14.30;101048.00;;;;5022141;28;20204;-72
2024/02/14 00:42:22;;;;;;;2.50;2.30;;;12.70;69.40;14.30;101051.00;;;;5027579;28;20657;-72
2024/02/14 00:44:50;;;;;;;2.83;2.63;;;12.70;69.40;14.30;101043.00;;;;5034828;28;20196;-72
2024/02/14 00:47:17;;;;;;;3.28;2.97;;;12.70;69.50;14.30;101039.00;;;;5034574;28;20283;-72
2024/02/14 00:49:45;;;;;;;3.55;2.80;;;12.70;69.50;14.30;101035.00;;;;5032253;28;20220;-72
2024/02/14 00:52:12;;;;;;;4.95;2.63;;;12.70;69.50;14.40;101040.00;;;;5027682;28;20311;-72
2024/02/14 00:54:39;;;;;;;3.03;2.72;;;12.80;69.70;14.40;101033.00;;;;5034297;28;20307;-72
2024/02/14 00:57:07;;;;;;;2.78;2.58;;;12.80;69.60;14.40;101041.00;;;;5034107;28;20287;-72
2024/02/14 00:59:35;;;;;;;3.25;2.80;;;12.80;69.60;14.40;101042.00;;;;5033110;28;20617;-72
2024/02/14 01:02:02;;;;;;;4.25;3.17;;;12.80;69.60;14.40;101032.00;;;;5034435;28;20283;-73
2024/02/14 01:04:29;;;;;;;3.67;3.08;;;12.80;69.80;14.50;101037.00;;;;5034388;28;20198;-72
2024/02/14 01:06:56;;;;;;;3.38;3.08;;;12.80;69.70;14.50;101035.00;;;;5029952;28;20288;-72
2024/02/14 01:09:23;;;;;;;3.35;2.75;;;12.90;69.80;14.50;101040.00;;;;5025540;28;20288;-72
2024/02/14 01:11:50;;;;;;;3.90;3.15;;;12.90;69.80;14.50;101040.00;;;;5032924;28;20287;-72
2024/02/14 01:14:19;;;;;;;2.95;2.75;;;12.90;69.90;14.50;101030.00;;;;5033608;28;20247;-72
2024/02/14 01:16:47;;;;;;;4.82;3.38;;;12.90;69.90;14.50;101042.00;;;;5030704;28;20220;-72
2024/02/14 01:19:15;;;;;;;3.42;3.05;;;12.90;69.80;14.50;101037.00;;;;5033693;28;20205;-71
2024/02/14 01:21:42;;;;;;;3.72;2.92;;;12.90;69.80;14.60;101037.00;;;;5031736;28;20283;-72
2024/02/14 01:24:09;;;;;;;3.30;3.00;;;13.00;69.90;14.60;101042.00;;;;5034293;28;20259;-72
2024/02/14 01:26:37;;;;;;;4.15;2.90;;;13.00;69.90;14.60;101031.00;;;;5033896;28;20204;-72
2024/02/14 01:29:05;;;;;;;3.65;3.05;;;13.00;69.80;14.60;101045.00;;;;5033588;28;20200;-72
2024/02/14 01:31:34;;;;;;;3.15;2.85;;;13.00;69.90;14.60;101037.00;;;;5033647;28;20223;-72
2024/02/14 01:34:02;;;;;;;5.78;3.47;;;13.00;69.90;14.60;101037.00;;;;5032764;28;20203;-72
2024/02/14 01:36:30;;;;;;;3.65;3.03;;;13.00;69.90;14.70;101040.00;;;;5023752;28;20576;-72
2024/02/14 01:38:57;;;;;;;4.30;3.90;;;13.10;70.00;14.60;101032.00;;;;5019931;28;20276;-72
2024/02/14 01:41:24;;;;;;;3.65;3.30;;;13.10;70.00;14.70;101029.00;;;;5020189;28;20230;-72
2024/02/14 01:43:51;;;;;;;4.80;3.67;;;13.10;70.20;14.70;101030.00;;;;5019940;28;20280;-72
2024/02/14 01:46:19;;;;;;;3.72;3.35;;;13.10;70.10;14.70;101036.00;;;;5021238;28;20275;-72
2024/02/14 01:48:48;;;;;;;3.83;3.45;;;13.10;70.10;14.70;101040.00;;;;5022877;28;20193;-72
2024/02/14 01:51:21;;;;;;;3.40;3.10;;;13.10;70.10;14.70;101042.00;;;;5026309;28;20589;-72
2024/02/14 01:53:48;;;;;;;4.18;3.45;;;13.20;70.10;14.70;101033.00;;;;5023202;28;20291;-72
2024/02/14 01:56:15;;;;;;;5.15;3.72;;;13.20;70.20;14.70;101035.00;;;;5022971;28;20259;-71
2024/02/14 01:58:44;;;;;;;3.47;3.17;;;13.10;70.20;14.70;101033.00;;;;5022043;28;20768;-72
2024/02/14 02:01:12;;;;;;;4.00;3.60;;;13.20;70.30;14.70;101033.00;;;;5025713;28;20203;-72
2024/02/14 02:03:40;;;;;;;4.40;3.80;;;13.20;70.20;14.80;101038.00;;;;5025335;28;20748;-72
2024/02/14 02:06:09;;;;;;;4.35;3.58;;;13.20;70.30;14.80;101040.00;;;;5022646;28;20204;-72
2024/02/14 02:08:36;;;;;;;5.57;3.90;;;13.20;70.30;14.80;101040.00;;;;5024592;28;20255;-72
2024/02/14 02:11:04;;;;;;;5.78;4.57;;;13.20;70.30;14.80;101039.00;;;;5024153;28;20657;-72
2024/02/14 02:13:31;;;;;;;5.22;4.18;;;13.20;70.30;14.80;101033.00;;;;5021038;28;20211;-72
2024/02/14 02:15:59;;;;;;;4.50;3.80;;;13.20;70.40;14.80;101042.00;;;;5020131;28;20633;-72
2024/02/14 02:18:26;;;;;;;5.00;4.22;;;13.20;70.50;14.80;101034.00;;;;5020035;28;20242;-72
2024/02/14 02:20:53;;;;;;;6.32;4.07;;;13.20;70.60;14.80;101040.00;;;;5025023;28;20220;-72
2024/02/14 02:23:22;;;;;;;4.43;4.03;;;13.30;70.50;14.80;101038.00;;;;5018083;28;20280;-72
2024/02/14 02:25:50;;;;;;;4.80;4.32;;;13.30;70.60;14.90;101039.00;;;;5024923;28;20296;-72
2024/02/14 02:28:17;;;;;;;4.43;4.03;;;13.30;70.50;14.90;101048.00;;;;5014637;28;20624;-72
2024/02/14 02:30:46;;;;;;;5.15;4.65;;;13.30;70.50;14.90;101047.00;;;;5028146;28;20224;-72
2024/02/14 02:33:13;;;;;;;5.13;4.57;;;13.30;70.50;14.90;101047.00;;;;5026909;28;20196;-72
2024/02/14 02:35:45;;;;;;;6.00;5.40;;;13.30;70.50;14.90;101052.00;;;;5031552;28;20298;-72
2024/02/14 02:38:12;;;;;;;4.82;4.13;;;13.30;70.60;14.90;101055.00;;;;5032489;28;20205;-72
2024/02/14 02:40:40;;;;;;;4.63;4.22;;;13.40;70.60;14.90;101053.00;;;;5032934;28;20200;-72
2024/02/14 02:43:07;;;;;;;5.80;4.47;;;13.40;70.80;15.00;101056.00;;;;5012706;28;20239;-72
2024/02/14 02:45:34;;;;;;;8.38;5.00;;;13.40;70.70;15.00;101052.00;;;;5022423;28;20200;-72
2024/02/14 02:48:02;;;;;;;5.30;4.80;;;13.40;70.70;15.00;101056.00;;;;5032428;28;20200;-72
2024/02/14 02:50:30;;;;;;;5.53;5.03;;;13.40;70.70;15.00;101062.00;;;;5032306;28;20319;-72
2024/02/14 02:52:57;;;;;;;5.22;4.22;;;13.40;70.80;15.00;101062.00;;;;5014851;28;20220;-72
2024/02/14 02:55:26;;;;;;;5.43;4.93;;;13.50;70.80;15.00;101064.00;;;;5030631;28;20200;-72
2024/02/14 02:57:55;;;;;;;5.45;4.80;;;13.40;70.80;15.00;101064.00;;;;5032010;28;20207;-72
2024/02/14 03:00:22;;;;;;;6.43;5.13;;;13.50;70.80;15.10;101066.00;;;;5030883;28;20211;-72
2024/02/14 03:02:50;;;;;;;5.20;4.70;;;13.50;70.80;15.10;101058.00;;;;5032072;28;20746;-72
2024/02/14 03:05:18;;;;;;;4.78;4.18;;;13.50;70.80;15.10;101057.00;;;;5031623;28;20276;-72
2024/02/14 03:07:47;;;;;;;4.93;4.53;;;13.50;70.80;15.10;101067.00;;;;5031931;28;20207;-72
2024/02/14 03:10:17;;;;;;;4.60;4.20;;;13.50;70.80;15.10;101061.00;;;;5030094;28;20228;-72
2024/02/14 03:12:47;;;;;;;5.32;4.72;;;13.50;70.80;15.10;101055.00;;;;5030868;28;20206;-71
2024/02/14 03:15:16;;;;;;;5.07;4.57;;;13.50;70.90;15.10;101053.00;;;;5031330;28;20204;-72
2024/02/14 03:17:43;;;;;;;5.43;4.93;;;13.50;70.90;15.20;101058.00;;;;5031913;28;20234;-72
2024/02/14 03:20:13;;;;;;;6.65;4.93;;;13.60;71.00;15.20;101057.00;;;;5031544;28;20238;-72
2024/02/14 03:22:44;;;;;;;5.68;5.05;;;13.60;71.00;15.20;101057.00;;;;5031683;28;20203;-72
2024/02/14 03:25:13;;;;;;;5.50;5.00;;;13.60;71.00;15.20;101058.00;;;;5031133;28;20200;-72
2024/02/14 03:27:40;;;;;;;5.43;4.93;;;13.60;70.90;15.20;101057.00;;;;5031663;28;20196;-72
2024/02/14 03:30:09;;;;;;;6.68;5.95;;;13.60;70.90;15.20;101073.00;;;;5011906;28;20205;-72
2024/02/14 03:32:37;;;;;;;5.85;5.35;;;13.70;71.10;15.20;101067.00;;;;5026961;28;20192;-72
2024/02/14 03:35:06;;;;;;;6.65;5.80;;;13.70;71.10;15.20;101063.00;;;;5030297;28;20267;-71
2024/02/14 03:37:33;;;;;;;6.28;5.68;;;13.70;71.20;15.30;101062.00;;;;5031924;28;20287;-72
2024/02/14 03:40:03;;;;;;;6.95;5.07;;;13.70;71.20;15.30;101071.00;;;;5031609;28;20189;-72
2024/02/14 03:42:30;;;;;;;9.68;6.22;;;13.70;71.20;15.30;101067.00;;;;5013018;28;20211;-72
2024/02/14 03:45:02;;;;;;;6.97;5.40;;;13.80;71.30;15.30;101077.00;;;;5011630;28;20251;-72
2024/02/14 03:47:31;;;;;;;7.50;4.85;;;13.80;71.30;15.40;101085.00;;;;5011063;28;20597;-72
2024/02/14 03:50:00;;;;;;;8.57;5.65;;;13.80;71.60;15.30;101076.00;;;;5029113;28;20200;-72
2024/02/14 03:52:27;;;;;;;7.32;5.53;;;13.80;71.30;15.40;101082.00;;;;5030854;28;20688;-72
2024/02/14 03:54:54;;;;;;;7.82;5.70;;;13.90;71.30;15.40;101072.00;;;;5031515;28;20800;-72
2024/02/14 03:57:21;;;;;;;6.70;5.45;;;13.90;71.40;15.40;101078.00;;;;5031681;28;20196;-72
2024/02/14 03:59:48;;;;;;;7.65;5.75;;;13.90;71.40;15.40;101083.00;;;;5030592;28;20274;-73
2024/02/14 04:02:16;;;;;;;6.22;4.97;;;13.90;71.30;15.50;101084.00;;;;5031028;28;20200;-72
2024/02/14 04:04:43;;;;;;;7.07;5.15;;;13.90;71.30;15.50;101086.00;;;;5031488;28;20609;-72
2024/02/14 04:07:12;;;;;;;7.75;6.30;;;13.90;71.30;15.50;101089.00;;;;5029396;28;20803;-73
2024/02/14 04:09:39;;;;;;;7.60;5.80;;;14.00;71.30;15.50;101096.00;;;;5011537;28;20292;-73
2024/02/14 04:12:07;;;;;;;8.98;5.80;;;14.00;71.30;15.50;101093.00;;;;5015678;28;20307;-72
2024/02/14 04:14:34;;;;;;;7.80;5.80;;;14.00;71.40;15.60;101090.00;;;;5030233;28;20261;-72
2024/02/14 04:17:02;;;;;;;7.43;6.28;;;14.00;71.30;15.60;101100.00;;;;5030815;28;20741;-73
2024/02/14 04:19:29;;;;;;;5.85;5.05;;;14.10;71.40;15.60;101108.00;;;;5030723;28;20283;-72
2024/02/14 04:21:56;;;;;;;7.60;5.57;;;14.10;71.30;15.60;101106.00;;;;5030947;28;20777;-72
2024/02/14 04:24:25;;;;;;;7.78;6.28;;;14.10;71.30;15.60;101108.00;;;;5030882;28;20243;-73
2024/02/14 04:26:55;;;;;;;8.02;6.18;;;14.10;71.30;15.60;101103.00;;;;5016878;28;20192;-73
2024/02/14 04:29:23;;;;;;;6.85;6.18;;;14.10;71.30;15.70;101108.00;;;;5014372;28;20247;-73
2024/02/14 04:31:50;;;;;;;10.73;6.68;;;14.10;71.30;15.70;101106.00;;;;5021412;28;20216;-73
2024/02/14 04:34:19;;;;;;;12.55;6.47;;;14.20;71.30;15.70;101126.00;;;;5030351;28;20246;-72
2024/02/14 04:36:46;;;;;;;7.28;6.45;;;14.20;71.30;15.70;101108.00;;;;5031280;28;20239;-72
2024/02/14 04:39:13;;;;;;;7.10;6.40;;;14.20;71.40;15.70;101125.00;;;;5031539;28;20283;-73
2024/02/14 04:41:42;;;;;;;8.02;6.32;;;14.20;71.30;15.70;101114.00;;;;5030439;28;20283;-72
2024/02/14 04:44:09;;;;;;;6.10;5.43;;;14.20;71.30;15.80;101115.00;;;;5029860;28;20231;-73
2024/02/14 04:46:37;;;;;;;6.63;5.53;;;14.20;71.30;15.80;101126.00;;;;5032943;28;20227;-73
2024/02/14 04:49:05;;;;;;;7.35;6.47;;;14.30;71.30;15.80;101130.00;;;;5034941;28;20275;-73
2024/02/14 04:51:32;;;;;;;9.80;6.78;;;14.30;71.30;15.80;101120.00;;;;5033611;28;20766;-73
2024/02/14 04:53:59;;;;;;;8.65;6.38;;;14.30;71.20;15.80;101129.00;;;;5034468;28;20542;-73
2024/02/14 04:56:27;;;;;;;7.32;6.55;;;14.30;71.20;15.80;101128.00;;;;5034313;28;20208;-73
2024/02/14 04:58:56;;;;;;;6.93;5.82;;;14.30;71.30;15.80;101136.00;;;;5033781;28;20299;-72
2024/02/14 05:01:23;;;;;;;6.95;6.25;;;14.30;71.20;15.80;101138.00;;;;5033366;28;20213;-73
2024/02/14 05:03:50;;;;;;;8.93;6.15;;;14.30;71.20;15.80;101137.00;;;;5034329;28;20287;-72
2024/02/14 05:06:17;;;;;;;7.40;6.40;;;14.30;71.30;15.80;101137.00;;;;5034843;28;20200;-72
2024/02/14 05:08:44;;;;;;;7.97;5.72;;;14.30;71.20;15.80;101134.00;;;;5034293;28;20204;-73
2024/02/14 05:11:12;;;;;;;7.30;5.50;;;14.30;71.20;15.80;101135.00;;;;5034597;28;20331;-73
2024/02/14 05:13:41;;;;;;;9.55;5.70;;;14.40;71.30;15.80;101141.00;;;;5033593;28;20629;-73
2024/02/14 05:16:10;;;;;;;6.45;5.35;;;14.40;71.30;15.90;101138.00;;;;5025539;28;20587;-72
2024/02/14 05:18:38;;;;;;;6.57;5.70;;;14.40;71.30;15.90;101141.00;;;;5032639;28;20200;-72
2024/02/14 05:21:07;;;;;;;6.88;5.55;;;14.40;71.30;15.90;101146.00;;;;5033921;28;20236;-73
2024/02/14 05:23:35;;;;;;;7.72;5.97;;;14.40;71.30;15.90;101154.00;;;;5033645;28;20570;-72
2024/02/14 05:26:03;;;;;;;8.43;5.75;;;14.40;71.30;15.90;101151.00;;;;5033307;28;20200;-73
2024/02/14 05:28:31;;;;;;;5.95;5.30;;;14.40;71.30;15.90;101154.00;;;;5033457;28;20595;-72
2024/02/14 05:31:00;;;;;;;6.00;5.43;;;14.40;71.30;15.90;101156.00;;;;5033480;28;20323;-72
2024/02/14 05:33:28;;;;;;;6.75;4.93;;;14.40;71.30;16.00;101149.00;;;;5033722;28;20283;-73
2024/02/14 05:35:55;;;;;;;6.07;5.50;;;14.40;71.30;16.00;101147.00;;;;5022767;28;20283;-72
2024/02/14 05:38:23;;;;;;;7.03;4.82;;;14.40;71.30;16.00;101151.00;;;;5030205;28;20193;-73
2024/02/14 05:40:50;;;;;;;6.13;5.10;;;14.40;71.30;16.00;101162.00;;;;5031493;28;20226;-73
2024/02/14 05:43:18;;;;;;;6.60;5.95;;;14.50;71.30;16.00;101157.00;;;;5027564;28;20291;-73
2024/02/14 05:45:45;;;;;;;6.18;5.53;;;14.50;71.30;16.00;101161.00;;;;5027229;28;20667;-73
2024/02/14 05:48:12;;;;;;;6.15;5.55;;;14.50;71.30;16.00;101160.00;;;;5032564;28;20834;-73
2024/02/14 05:50:41;;;;;;;6.57;5.65;;;14.50;71.30;16.00;101158.00;;;;5030820;28;21017;-72
2024/02/14 05:53:08;;;;;;;6.03;5.43;;;14.50;71.30;16.00;101153.00;;;;5028594;28;20273;-72
2024/02/14 05:55:35;;;;;;;6.40;5.05;;;14.50;71.30;16.00;101157.00;;;;5031948;28;20644;-73
2024/02/14 05:58:02;;;;;;;5.47;4.97;;;14.50;71.40;16.00;101160.00;;;;5027854;28;20250;-72
2024/02/14 06:00:29;;;;;;;5.72;5.05;;;14.50;71.40;16.00;101163.00;;;;5030447;28;20285;-72
2024/02/14 06:02:56;;;;;;;7.97;5.90;;;14.50;71.40;16.00;101161.00;;;;5030485;28;20200;-73
2024/02/14 06:05:24;;;;;;;5.75;5.15;;;14.50;71.60;16.00;101161.00;;;;5033199;28;20239;-72
2024/02/14 06:07:52;;;;;;;5.90;5.30;;;14.50;71.50;16.00;101164.00;;;;5033140;28;20291;-72
2024/02/14 06:10:20;;;;;;;5.82;5.28;;;14.50;71.50;16.00;101165.00;;;;5031979;28;20761;-73
2024/02/14 06:12:47;;;;;;;5.22;4.65;;;14.50;71.60;16.10;101170.00;;;;5031927;28;20705;-72
2024/02/14 06:15:16;;;;;;;5.18;4.72;;;14.50;71.50;16.10;101179.00;;;;5033030;28;20208;-72
2024/02/14 06:17:43;;;;;;;4.78;4.18;;;14.50;71.60;16.10;101176.00;;;;5032997;28;20240;-72
2024/02/14 06:20:12;;;;;;;5.15;4.65;;;14.50;71.60;16.10;101175.00;;;;5031983;28;20299;-73
2024/02/14 06:22:39;;;;;;;5.22;4.75;;;14.50;71.60;16.10;101182.00;;;;5032224;28;20208;-72
2024/02/14 06:25:08;;;;;;;5.82;4.63;;;14.50;71.60;16.10;101183.00;;;;5028762;28;20200;-73
2024/02/14 06:27:37;;;;;;;5.85;5.35;;;14.50;71.60;16.10;101195.00;;;;5032574;28;20662;-72
2024/02/14 06:30:05;;;;;;;4.97;4.57;;;14.50;71.60;16.10;101184.00;;;;5030988;28;20192;-72
2024/02/14 06:32:32;;;;;;;5.75;5.15;;;14.60;71.60;16.10;101191.00;;;;5031388;28;20307;-72
2024/02/14 06:34:59;;;;;;;6.50;5.30;;;14.50;71.50;16.10;101197.00;;;;5030716;28;20197;-73
2024/02/14 06:37:26;;;;;;;6.63;5.28;;;14.60;71.60;16.10;101197.00;;;;5030090;28;20192;-72
2024/02/14 06:39:53;;;;;;;6.63;6.03;;;14.60;71.70;16.10;101196.00;;;;5030238;28;20291;-72
2024/02/14 06:42:22;;;;;;;6.10;5.20;;;14.60;71.70;16.10;101208.00;;;;5030475;28;20200;-73
2024/02/14 06:44:49;;;;;;;6.78;6.13;;;14.60;71.70;16.10;101213.00;;;;5029043;28;20203;-73
2024/02/14 06:47:16;;;;;;;6.78;6.10;;;14.60;71.70;16.10;101216.00;;;;5021395;28;20201;-72
2024/02/14 06:49:43;;;;;;;6.35;5.68;;;14.60;71.70;16.20;101215.00;;;;5029775;28;20228;-72
2024/02/14 06:52:10;;;;;;;7.05;6.38;;;14.60;71.70;16.20;101202.00;;;;5030932;28;20256;-72
2024/02/14 06:54:37;;;;;;;8.18;7.38;;;14.60;71.70;16.20;101210.00;;;;5031619;28;20299;-73
2024/02/14 06:57:07;;;;;;;7.78;6.97;;;14.60;71.70;16.20;101211.00;;;;5031438;28;20196;-72
2024/02/14 06:59:37;;;;;;;8.30;7.50;;;14.70;71.70;16.20;101211.00;;;;5028182;28;20231;-74
2024/02/14 07:02:06;;;;;;;8.05;7.13;;;14.70;71.70;16.20;101220.00;;;;5023185;28;20196;-72
2024/02/14 07:04:34;;;;;;;8.90;8.00;;;14.60;71.70;16.20;101214.00;;;;5018771;28;20208;-72
2024/02/14 07:07:01;;;;;;;8.50;7.70;;;14.60;71.60;16.20;101221.00;;;;5019178;28;20197;-72
2024/02/14 07:09:28;;;;;;;8.57;7.68;;;14.60;71.60;16.20;101229.00;;;;5017732;28;20204;-72
2024/02/14 07:11:58;;;;;;;11.80;7.57;;;14.60;71.60;16.20;101218.00;;;;5020175;28;20212;-72
2024/02/14 07:14:25;;;;;;;10.35;7.38;;;14.70;71.70;16.20;101231.00;;;;5006998;28;20201;-73
2024/02/14 07:16:53;;;;;;;8.18;7.45;;;14.70;71.70;16.20;101231.00;;;;5011952;28;20193;-72
2024/02/14 07:19:21;;;;;;;8.27;7.45;;;14.60;71.70;16.20;101226.00;;;;5031781;28;20246;-72
2024/02/14 07:21:48;;;;;;;9.02;7.82;;;14.70;71.70;16.20;101231.00;;;;5023993;28;20228;-72
2024/02/14 07:24:15;;;;;;;8.88;7.97;;;14.70;71.70;16.20;101233.00;;;;5022702;28;20279;-72
2024/02/14 07:26:44;;;;;;;8.75;7.55;;;14.70;71.70;16.30;101222.00;;;;5018991;28;20283;-73
2024/02/14 07:29:11;;;;;;;9.43;7.55;;;14.70;71.70;16.20;101228.00;;;;5018587;28;20668;-73
2024/02/14 07:31:38;;;;;;;8.52;7.72;;;14.70;71.70;16.30;101228.00;;;;5018293;28;20314;-73
2024/02/14 07:34:07;;;;;;;9.27;7.35;;;14.70;71.70;16.20;101221.00;;;;5022242;28;20284;-73
2024/02/14 07:36:34;;;;;;;8.90;7.43;;;14.70;71.70;16.30;101235.00;;;;5021575;28;20196;-73
2024/02/14 07:39:01;;;;;;;8.15;7.35;;;14.70;71.70;16.30;101230.00;;;;5020157;28;20201;-73
2024/02/14 07:41:28;;;;;;;8.45;7.28;;;14.70;71.80;16.30;101230.00;;;;5026061;28;20700;-73
2024/02/14 07:43:56;;;;;;;7.75;6.72;;;14.70;71.80;16.30;101238.00;;;;5010412;28;20197;-73
2024/02/14 07:46:26;;;;;;;9.27;7.82;;;14.70;71.80;16.30;101239.00;;;;5030486;28;20236;-72
2024/02/14 07:48:53;;;;;;;8.18;7.38;;;14.80;71.90;16.30;101236.00;;;;5024822;28;20587;-73
2024/02/14 07:51:22;;;;;;;8.00;7.20;;;14.80;71.90;16.30;101239.00;;;;5029165;28;20192;-72
2024/02/14 07:53:50;;;;;;;6.75;6.15;;;14.80;71.90;16.40;101242.00;;;;5022742;28;20216;-72
2024/02/14 07:56:18;;;;;;;6.70;6.03;;;14.80;71.90;16.40;101248.00;;;;5031014;28;20657;-72
2024/02/14 07:58:45;;;;;;;7.75;6.65;;;14.80;71.90;16.40;101250.00;;;;5025645;28;20195;-73
2024/02/14 08:01:12;;;;;;;7.30;6.60;;;14.80;71.90;16.40;101248.00;;;;5029744;28;20295;-73
2024/02/14 08:03:41;;;;;;;7.00;6.07;;;14.80;71.80;16.40;101252.00;;;;5030997;28;20254;-72
2024/02/14 08:06:09;;;;;;;6.75;6.10;;;14.80;71.80;16.40;101248.00;;;;5028193;28;20197;-72
2024/02/14 08:08:38;;;;;;;7.90;7.20;;;14.80;71.80;16.40;101255.00;;;;5019882;28;20200;-73
2024/02/14 08:11:05;;;;;;;7.72;7.03;;;14.80;71.90;16.40;101260.00;;;;5031355;28;20577;-72
2024/02/14 08:13:34;;;;;;;7.43;6.68;;;14.80;71.90;16.40;101254.00;;;;5028392;28;20250;-72
2024/02/14 08:16:01;;;;;;;7.97;7.20;;;14.80;71.80;16.40;101265.00;;;;5023211;28;20193;-73
2024/02/14 08:18:28;;;;;;;8.75;7.85;;;14.90;71.90;16.40;101263.00;;;;5019801;28;20307;-72
2024/02/14 08:20:55;;;;;;;9.75;8.15;;;14.80;71.80;16.40;101263.00;;;;5028748;28;20306;-72
2024/02/14 08:23:23;;;;;;;9.07;7.43;;;14.90;71.90;16.40;101264.00;;;;5022117;28;20224;-73
2024/02/14 08:25:52;;;;;;;11.18;8.70;;;14.80;71.80;16.40;101270.00;;;;5021096;28;20230;-73
2024/02/14 08:28:20;;;;;;;7.95;7.15;;;14.90;71.90;16.40;101267.00;;;;5028395;28;20279;-73
2024/02/14 08:30:47;;;;;;;8.93;7.97;;;14.80;71.90;16.50;101259.00;;;;5020421;28;20243;-73
2024/02/14 08:33:16;;;;;;;8.38;7.57;;;14.80;72.60;16.50;101269.00;;;;5022784;28;20227;-72
2024/02/14 08:35:47;;;;;;;8.80;7.47;;;14.90;72.00;16.50;101264.00;;;;5019814;28;20232;-73
2024/02/14 08:38:15;;;;;;;8.93;8.02;;;14.90;72.10;16.50;101265.00;;;;5023600;28;20564;-72
2024/02/14 08:40:43;;;;;;;8.00;7.20;;;14.90;72.00;16.50;101265.00;;;;5025892;28;20707;-73
2024/02/14 08:43:12;;;;;;;9.13;8.23;;;14.90;72.00;16.50;101266.00;;;;5027303;28;20192;-72
2024/02/14 08:45:39;;;;;;;8.73;7.93;;;14.90;72.00;16.50;101274.00;;;;5025008;28;20203;-72
2024/02/14 08:48:08;;;;;;;8.75;7.85;;;14.90;72.00;16.50;101277.00;;;;5030557;28;20299;-72
2024/02/14 08:50:35;;;;;;;8.73;7.82;;;14.90;72.00;16.50;101277.00;;;;5028179;28;20278;-73
2024/02/14 08:53:02;;;;;;;8.18;7.38;;;14.90;72.10;16.50;101283.00;;;;5028222;28;20712;-73
2024/02/14 08:55:33;;;;;;;8.48;7.68;;;14.90;72.00;16.60;101279.00;;;;5026902;28;20199;-72
2024/02/14 08:58:00;;;;;;;8.45;7.15;;;14.90;72.00;16.60;101277.00;;;;5025966;28;20688;-71
2024/02/14 09:00:30;;;;;;;8.20;7.40;;;15.00;72.00;16.50;101270.00;;;;5024440;28;20301;-71
2024/02/14 09:02:59;;;;;;;8.77;7.32;;;15.00;72.10;16.60;101273.00;;;;5026891;28;20212;-71
2024/02/14 09:05:28;;;;;;;8.32;7.13;;;15.00;72.00;16.60;101277.00;;;;5025136;28;20299;-71
2024/02/14 09:07:55;;;;;;;8.18;7.43;;;15.00;72.00;16.60;101274.00;;;;5029011;28;20200;-71
2024/02/14 09:10:22;;;;;;;7.75;7.03;;;15.00;72.00;16.60;101281.00;;;;5028160;28;20279;-71
2024/02/14 09:12:49;;;;;;;8.20;7.50;;;15.00;72.00;16.60;101284.00;;;;5025389;28;20224;-71
2024/02/14 09:15:17;;;;;;;7.97;7.28;;;15.00;72.00;16.60;101284.00;;;;5020624;28;20192;-71
2024/02/14 09:17:46;;;;;;;9.00;7.53;;;15.00;72.00;16.60;101292.00;;;;5030149;28;20207;-71
2024/02/14 09:20:13;;;;;;;8.20;6.82;;;15.00;72.00;16.60;101288.00;;;;5019505;28;20227;-71
2024/02/14 09:22:42;;;;;;;8.00;7.30;;;15.00;72.00;16.60;101291.00;;;;5017164;28;20713;-71
2024/02/14 09:25:09;;;;;;;8.48;7.60;;;15.00;72.10;16.60;101299.00;;;;5016132;28;20580;-71
2024/02/14 09:27:37;;;;;;;8.10;7.30;;;15.00;72.00;16.60;101295.00;;;;5032966;28;20231;-71
2024/02/14 09:30:07;;;;;;;10.52;8.38;;;15.00;72.00;16.60;101300.00;;;;5027793;28;20754;-71
2024/02/14 09:32:34;;;;;;;7.47;6.72;;;15.00;72.00;16.60;101303.00;;;;5033047;28;20239;-71
2024/02/14 09:35:06;;;;;;;9.73;7.70;;;15.10;72.10;16.60;101300.00;;;;5028114;28;20193;-71
2024/02/14 09:37:33;;;;;;;7.40;6.47;;;15.10;72.10;16.70;101294.00;;;;5019016;28;20275;-71
2024/02/14 09:40:01;;;;;;;7.05;6.40;;;15.10;72.10;16.70;101290.00;;;;5033311;28;20234;-71
2024/02/14 09:42:38;;;;;;;7.88;7.18;;;15.10;72.10;16.60;101300.00;;;;5034049;28;20291;-71
2024/02/14 09:45:08;;;;;;;7.78;6.78;;;15.10;72.10;16.60;101290.00;;;;5034034;28;20246;-71
2024/02/14 09:47:38;;;;;;;10.25;6.97;;;15.10;72.10;16.70;101294.00;;;;5029406;28;20633;-72
2024/02/14 09:50:09;;;;;;;9.98;8.40;;;15.10;72.10;16.60;101304.00;;;;5027720;28;20207;-71
2024/02/14 09:52:39;;;;;;;10.05;8.13;;;15.10;72.10;16.70;101297.00;;;;5033457;28;20224;-71
2024/02/14 09:55:10;;;;;;;8.20;7.38;;;15.10;72.20;16.70;101303.00;;;;5032723;28;20195;-72
2024/02/14 09:57:42;;;;;;;8.52;7.72;;;15.10;72.10;16.70;101307.00;;;;5014073;28;20651;-71
2024/02/14 10:00:12;;;;;;;9.73;8.60;;;15.10;72.20;16.70;101306.00;;;;5013731;28;20303;-72
2024/02/14 10:02:40;;;;;;;10.05;7.28;;;15.10;72.20;16.80;101310.00;;;;5009303;28;20197;-72
2024/02/14 10:05:09;;;;;;;7.65;6.75;;;15.10;72.20;16.70;101313.00;;;;5033608;28;20701;-72
2024/02/14 10:07:43;;;;;;;8.27;7.45;;;15.20;72.30;16.70;101309.00;;;;5032952;28;20296;-71
2024/02/14 10:10:13;;;;;;;7.47;6.72;;;15.20;72.40;16.80;101304.00;;;;5032849;28;20184;-72
2024/02/14 10:12:40;;;;;;;8.48;7.38;;;15.20;72.30;16.80;101306.00;;;;5032384;28;20228;-72
2024/02/14 10:15:09;;;;;;;7.28;6.68;;;15.20;72.30;16.80;101303.00;;;;5033322;28;20207;-71
2024/02/14 10:17:37;;;;;;;6.22;5.68;;;15.20;72.40;16.80;101312.00;;;;5032642;28;20231;-72
2024/02/14 10:20:06;;;;;;;6.65;6.05;;;15.20;72.30;16.80;101313.00;;;;5031359;28;20228;-71
2024/02/14 10:22:38;;;;;;;6.05;5.45;;;15.30;72.40;16.80;101307.00;;;;5033058;28;20215;-71
2024/02/14 10:25:08;;;;;;;6.43;5.93;;;15.30;72.40;16.90;101306.00;;;;5032508;28;20279;-71
2024/02/14 10:27:38;;;;;;;7.47;6.25;;;15.30;72.40;16.90;101316.00;;;;5033078;28;20205;-71
2024/02/14 10:30:09;;;;;;;6.82;6.13;;;15.30;72.40;16.90;101315.00;;;;5031294;28;20749;-71
2024/02/14 10:32:36;;;;;;;6.85;6.10;;;15.30;72.40;17.00;101315.00;;;;5032731;28;20281;-71
2024/02/14 10:35:08;;;;;;;7.10;5.85;;;15.40;72.50;17.00;101321.00;;;;5033240;28;20569;-72
2024/02/14 10:37:37;;;;;;;7.57;6.45;;;15.40;72.50;17.00;101319.00;;;;5032437;28;20262;-71
2024/02/14 10:40:06;;;;;;;6.55;5.95;;;15.40;72.50;17.00;101334.00;;;;5028170;28;20212;-71
2024/02/14 10:42:34;;;;;;;7.07;6.30;;;15.40;72.40;17.10;101331.00;;;;5029806;28;20192;-71
2024/02/14 10:45:02;;;;;;;6.45;5.85;;;15.40;72.40;17.10;101321.00;;;;5031468;28;20287;-71
2024/02/14 10:47:35;;;;;;;6.85;6.05;;;15.50;72.50;17.00;101320.00;;;;5028473;28;20658;-72
2024/02/14 10:50:05;;;;;;;7.93;5.90;;;15.50;72.40;17.10;101316.00;;;;5021655;28;20287;-71